createdAt,value
2018-07-20T00:02:10.030Z,6.60
2018-07-20T00:04:39.074Z,6.60
2018-07-20T00:07:08.148Z,6.87
2018-07-20T00:09:37.253Z,6.00
2018-07-20T00:12:06.805Z,6.50
2018-07-20T00:14:35.898Z,6.07
2018-07-20T00:17:05.123Z,5.90
2018-07-20T00:19:34.295Z,6.30
2018-07-20T00:22:03.446Z,6.40
2018-07-20T00:24:32.417Z,5.93
2018-07-20T00:27:01.508Z,6.13
2018-07-20T00:29:30.562Z,7.10
2018-07-20T00:31:59.625Z,5.97
2018-07-20T00:34:28.882Z,6.97
2018-07-20T00:36:57.996Z,6.40
2018-07-20T00:39:27.194Z,6.37
2018-07-20T00:41:57.239Z,6.80
2018-07-20T00:44:26.366Z,5.70
2018-07-20T00:46:55.491Z,6.30
2018-07-20T00:49:24.574Z,6.60
2018-07-20T00:51:53.637Z,6.23
2018-07-20T00:54:22.663Z,7.27
2018-07-20T00:56:51.977Z,6.83
2018-07-20T00:59:21.012Z,6.90
2018-07-20T01:01:50.086Z,7.17
2018-07-20T01:04:19.274Z,7.07
2018-07-20T01:06:48.293Z,7.00
2018-07-20T01:09:17.361Z,7.00
2018-07-20T01:11:46.436Z,7.37
2018-07-20T01:14:15.534Z,6.60
2018-07-20T01:16:44.576Z,6.50
2018-07-20T01:19:13.757Z,6.80
2018-07-20T01:21:43.114Z,6.60
2018-07-20T01:24:12.273Z,6.20
2018-07-20T01:26:41.316Z,7.17
2018-07-20T01:29:10.404Z,6.40
2018-07-20T01:31:39.473Z,6.50
2018-07-20T01:34:08.545Z,6.00
2018-07-20T01:36:37.582Z,6.57
2018-07-20T01:39:07.092Z,7.10
2018-07-20T01:41:36.135Z,6.57
2018-07-20T01:44:05.211Z,6.50
2018-07-20T01:46:34.254Z,6.83
2018-07-20T01:49:03.372Z,6.37
2018-07-20T01:51:32.502Z,6.90
2018-07-20T01:54:01.621Z,7.00
2018-07-20T01:56:30.710Z,6.63
2018-07-20T01:58:59.910Z,6.90
2018-07-20T02:01:29.008Z,6.77
2018-07-20T02:03:58.081Z,6.63
2018-07-20T02:06:27.210Z,7.00
2018-07-20T02:08:56.317Z,6.17
2018-07-20T02:11:25.389Z,6.53
2018-07-20T02:13:54.433Z,6.73
2018-07-20T02:16:23.526Z,6.50
2018-07-20T02:18:52.616Z,6.67
2018-07-20T02:21:21.688Z,6.97
2018-07-20T02:23:52.039Z,6.90
2018-07-20T02:26:21.129Z,6.93
2018-07-20T02:28:50.209Z,6.90
2018-07-20T02:31:19.323Z,6.60
2018-07-20T02:33:48.378Z,7.20
2018-07-20T02:36:17.513Z,6.90
2018-07-20T02:38:46.653Z,7.07
2018-07-20T02:41:15.732Z,6.60
2018-07-20T02:43:44.789Z,7.20
2018-07-20T02:46:13.847Z,6.70
2018-07-20T02:48:42.903Z,6.93
2018-07-20T02:51:11.965Z,6.80
2018-07-20T02:53:41.020Z,7.20
2018-07-20T02:56:10.142Z,6.30
2018-07-20T02:58:39.269Z,7.43
2018-07-20T03:01:08.365Z,7.20
2018-07-20T03:03:37.420Z,7.77
2018-07-20T03:06:06.462Z,7.03
2018-07-20T03:08:35.657Z,6.70
2018-07-20T03:11:04.686Z,7.17
2018-07-20T03:13:33.745Z,7.20
2018-07-20T03:16:02.889Z,7.30
2018-07-20T03:18:32.398Z,7.30
2018-07-20T03:21:01.605Z,7.60
2018-07-20T03:23:31.660Z,7.17
2018-07-20T03:26:00.729Z,7.17
2018-07-20T03:28:29.825Z,6.97
2018-07-20T03:30:58.905Z,7.10
2018-07-20T03:33:28.029Z,7.00
2018-07-20T03:35:57.129Z,8.00
2018-07-20T03:38:26.196Z,7.13
2018-07-20T03:40:55.233Z,7.10
2018-07-20T03:43:24.281Z,7.10
2018-07-20T03:45:53.642Z,7.27
2018-07-20T03:48:22.767Z,7.63
2018-07-20T03:50:51.822Z,7.10
2018-07-20T03:53:20.960Z,7.93
2018-07-20T03:55:50.118Z,7.20
2018-07-20T03:58:19.204Z,7.20
2018-07-20T04:00:48.495Z,8.00
2018-07-20T04:03:17.603Z,7.07
2018-07-20T04:05:46.686Z,7.70
2018-07-20T04:08:15.745Z,7.43
2018-07-20T04:10:44.826Z,8.27
2018-07-20T04:13:13.891Z,8.00
2018-07-20T04:15:42.976Z,7.87
2018-07-20T04:18:12.083Z,7.83
2018-07-20T04:20:41.278Z,8.00
2018-07-20T04:23:10.326Z,7.73
2018-07-20T04:25:39.400Z,7.73
2018-07-20T04:28:08.470Z,8.07
2018-07-20T04:30:37.578Z,7.57
2018-07-20T04:33:06.817Z,7.00
2018-07-20T04:35:35.982Z,8.30
2018-07-20T04:38:05.043Z,7.10
2018-07-20T04:40:34.139Z,7.43
2018-07-20T04:43:03.161Z,6.90
2018-07-20T04:45:32.222Z,7.50
2018-07-20T04:48:01.248Z,7.47
2018-07-20T04:50:30.321Z,7.67
2018-07-20T04:52:59.379Z,7.90
2018-07-20T04:55:28.438Z,8.00
2018-07-20T04:57:57.483Z,8.07
2018-07-20T05:00:26.538Z,8.20
2018-07-20T05:02:55.657Z,7.90
2018-07-20T05:05:24.762Z,7.10
2018-07-20T05:07:53.885Z,7.13
2018-07-20T05:10:22.913Z,7.67
2018-07-20T05:12:52.369Z,7.20
2018-07-20T05:15:21.510Z,7.37
2018-07-20T05:17:50.603Z,7.50
2018-07-20T05:20:19.661Z,7.47
2018-07-20T05:22:48.806Z,7.30
2018-07-20T05:25:17.877Z,7.60
2018-07-20T05:27:46.962Z,7.77
2018-07-20T05:30:16.878Z,7.37
2018-07-20T05:32:46.136Z,7.27
2018-07-20T05:35:15.231Z,7.10
2018-07-20T05:37:44.457Z,7.23
2018-07-20T05:40:13.628Z,7.20
2018-07-20T05:42:42.823Z,7.10
2018-07-20T05:45:11.946Z,8.60
2018-07-20T05:47:41.013Z,8.80
2018-07-20T05:50:10.184Z,9.13
2018-07-20T05:52:39.237Z,7.30
2018-07-20T05:55:08.258Z,7.60
2018-07-20T05:57:37.319Z,7.90
2018-07-20T06:00:07.553Z,7.60
2018-07-20T06:02:36.565Z,8.00
2018-07-20T06:05:05.725Z,8.77
2018-07-20T06:07:34.897Z,7.63
2018-07-20T06:10:04.158Z,6.90
2018-07-20T06:12:33.349Z,7.27
2018-07-20T06:15:02.555Z,7.43
2018-07-20T06:17:31.758Z,7.60
2018-07-20T06:20:00.843Z,6.30
2018-07-20T06:22:29.942Z,7.37
2018-07-20T06:24:59.027Z,7.20
2018-07-20T06:27:28.061Z,7.73
2018-07-20T06:29:57.146Z,8.00
2018-07-20T06:32:26.318Z,8.67
2018-07-20T06:34:55.494Z,7.70
2018-07-20T06:37:24.622Z,7.17
2018-07-20T06:39:53.745Z,7.87
2018-07-20T06:42:22.809Z,7.77
2018-07-20T06:44:51.913Z,7.77
2018-07-20T06:47:20.970Z,10.30
2018-07-20T06:49:50.188Z,8.30
2018-07-20T06:52:19.286Z,8.10
2018-07-20T06:54:48.460Z,8.10
2018-07-20T06:57:18.384Z,8.60
2018-07-20T06:59:47.494Z,8.23
2018-07-20T07:02:16.577Z,8.90
2018-07-20T07:04:45.722Z,7.80
2018-07-20T07:07:14.990Z,8.40
2018-07-20T07:09:44.167Z,8.60
2018-07-20T07:12:13.896Z,8.97
2018-07-20T07:14:43.162Z,8.30
2018-07-20T07:17:12.317Z,8.67
2018-07-20T07:19:42.009Z,9.17
2018-07-20T07:22:11.196Z,10.67
2018-07-20T07:24:40.350Z,9.40
2018-07-20T07:27:09.559Z,7.90
2018-07-20T07:29:38.626Z,7.80
2018-07-20T07:32:07.856Z,7.53
2018-07-20T07:34:37.040Z,8.80
2018-07-20T07:37:06.172Z,8.93
2018-07-20T07:39:35.239Z,8.13
2018-07-20T07:42:04.412Z,8.47
2018-07-20T07:44:33.469Z,7.63
2018-07-20T07:47:02.596Z,7.83
2018-07-20T07:49:31.744Z,7.40
2018-07-20T07:52:00.840Z,8.70
2018-07-20T07:54:30.055Z,7.83
2018-07-20T07:56:59.170Z,7.63
2018-07-20T07:59:28.285Z,7.30
2018-07-20T08:01:57.350Z,7.17
2018-07-20T08:04:26.618Z,6.47
2018-07-20T08:06:56.690Z,7.07
2018-07-20T08:09:25.771Z,6.70
2018-07-20T08:11:54.847Z,6.80
2018-07-20T08:14:24.020Z,6.30
2018-07-20T08:16:53.127Z,5.73
2018-07-20T08:19:22.227Z,6.00
2018-07-20T08:21:51.452Z,8.90
2018-07-20T08:24:20.706Z,7.07
2018-07-20T08:26:49.944Z,5.70
2018-07-20T08:29:19.131Z,5.53
2018-07-20T08:31:48.260Z,5.70
2018-07-20T08:34:17.369Z,6.60
2018-07-20T08:36:46.445Z,6.10
2018-07-20T08:39:15.564Z,5.87
2018-07-20T08:41:44.633Z,5.70
2018-07-20T08:44:13.778Z,5.87
2018-07-20T08:46:42.846Z,5.37
2018-07-20T08:49:12.590Z,5.77
2018-07-20T08:51:41.638Z,6.60
2018-07-20T08:54:10.774Z,5.30
2018-07-20T08:56:39.877Z,5.30
2018-07-20T08:59:09.102Z,5.27
2018-07-20T09:01:38.160Z,5.60
2018-07-20T09:04:07.223Z,4.90
2018-07-20T09:06:36.301Z,5.70
2018-07-20T09:09:06.705Z,5.27
2018-07-20T09:11:35.985Z,5.10
2018-07-20T09:14:05.125Z,5.73
2018-07-20T09:16:34.197Z,4.93
2018-07-20T09:19:03.372Z,4.50
2018-07-20T09:21:32.561Z,4.60
2018-07-20T09:24:01.709Z,4.50
2018-07-20T09:26:31.125Z,5.17
2018-07-20T09:29:00.421Z,4.97
2018-07-20T09:31:29.615Z,5.53
2018-07-20T09:33:59.086Z,5.30
2018-07-20T09:36:28.351Z,5.00
2018-07-20T09:38:57.982Z,5.57
2018-07-20T09:41:27.089Z,4.97
2018-07-20T09:43:56.274Z,4.50
2018-07-20T09:46:25.625Z,4.80
2018-07-20T09:48:55.214Z,6.47
2018-07-20T09:51:24.315Z,4.97
2018-07-20T09:53:53.450Z,5.13
2018-07-20T09:56:22.625Z,4.70
2018-07-20T09:58:51.766Z,4.57
2018-07-20T10:01:21.098Z,4.83
2018-07-20T10:03:50.276Z,4.73
2018-07-20T10:06:19.322Z,4.43
2018-07-20T10:08:48.555Z,5.10
2018-07-20T10:11:17.747Z,4.80
2018-07-20T10:13:47.025Z,4.73
2018-07-20T10:16:16.226Z,4.67
2018-07-20T10:18:45.419Z,5.20
2018-07-20T10:21:14.522Z,4.90
2018-07-20T10:23:43.684Z,6.83
2018-07-20T10:26:12.917Z,4.57
2018-07-20T10:28:42.018Z,4.57
2018-07-20T10:31:11.082Z,5.13
2018-07-20T10:33:40.294Z,4.83
2018-07-20T10:36:09.493Z,4.77
2018-07-20T10:38:38.546Z,4.80
2018-07-20T10:41:07.955Z,4.10
2018-07-20T10:43:41.327Z,4.93
2018-07-20T10:46:10.456Z,4.20
2018-07-20T10:48:39.585Z,5.00
2018-07-20T10:51:08.722Z,4.57
2018-07-20T10:53:37.846Z,4.70
2018-07-20T10:56:06.966Z,4.33
2018-07-20T10:58:36.242Z,4.73
2018-07-20T11:01:05.362Z,4.90
2018-07-20T11:03:34.578Z,4.73
2018-07-20T11:06:03.709Z,4.93
2018-07-20T11:08:33.312Z,5.00
2018-07-20T11:11:02.439Z,4.63
2018-07-20T11:13:31.604Z,4.80
2018-07-20T11:16:00.767Z,5.23
2018-07-20T11:18:29.850Z,4.60
2018-07-20T11:20:59.050Z,4.60
2018-07-20T11:23:28.198Z,5.00
2018-07-20T11:25:57.795Z,4.90
2018-07-20T11:28:27.002Z,5.23
2018-07-20T11:30:56.225Z,4.53
2018-07-20T11:33:25.337Z,5.03
2018-07-20T11:35:54.616Z,4.70
2018-07-20T11:38:23.749Z,4.80
2018-07-20T11:40:52.973Z,4.87
2018-07-20T11:43:22.108Z,4.30
2018-07-20T11:45:51.299Z,5.00
2018-07-20T11:48:20.453Z,4.93
2018-07-20T11:50:49.583Z,4.73
2018-07-20T11:53:19.428Z,4.87
2018-07-20T11:55:48.489Z,4.67
2018-07-20T11:58:17.582Z,4.60
2018-07-20T12:00:47.073Z,4.93
2018-07-20T12:03:16.387Z,4.13
2018-07-20T12:05:45.512Z,4.73
2018-07-20T12:08:14.551Z,4.50
2018-07-20T12:10:43.676Z,4.20
2018-07-20T12:13:12.884Z,4.23
2018-07-20T12:15:42.494Z,4.63
2018-07-20T12:18:14.538Z,4.50
2018-07-20T12:20:43.762Z,4.47
2018-07-20T12:23:15.061Z,4.33
2018-07-20T12:25:44.126Z,4.70
2018-07-20T12:28:13.239Z,4.47
2018-07-20T12:30:42.443Z,4.50
2018-07-20T12:33:11.577Z,4.23
2018-07-20T12:35:40.650Z,4.70
2018-07-20T12:38:09.774Z,4.27
2018-07-20T12:40:38.804Z,4.30
2018-07-20T12:43:07.908Z,4.97
2018-07-20T12:45:36.978Z,4.70
2018-07-20T12:48:06.146Z,4.33
2018-07-20T12:50:35.179Z,4.00
2018-07-20T12:53:04.227Z,4.93
2018-07-20T12:55:33.376Z,4.70
2018-07-20T12:58:02.477Z,4.93
2018-07-20T13:00:31.578Z,3.90
2018-07-20T13:03:00.669Z,4.57
2018-07-20T13:05:29.812Z,4.87
2018-07-20T13:07:58.901Z,4.33
2018-07-20T13:10:27.983Z,4.50
2018-07-20T13:12:57.055Z,4.20
2018-07-20T13:15:26.137Z,4.50
2018-07-20T13:17:55.369Z,4.70
2018-07-20T13:20:24.458Z,4.40
2018-07-20T13:22:53.538Z,4.53
2018-07-20T13:25:22.738Z,4.70
2018-07-20T13:27:51.762Z,4.27
2018-07-20T13:30:20.818Z,4.50
2018-07-20T13:32:50.117Z,3.93
2018-07-20T13:35:19.240Z,4.63
2018-07-20T13:37:48.347Z,4.37
2018-07-20T13:40:17.589Z,4.23
2018-07-20T13:42:46.731Z,4.00
2018-07-20T13:45:15.877Z,4.80
2018-07-20T13:47:44.950Z,4.50
2018-07-20T13:50:14.049Z,4.20
2018-07-20T13:52:43.147Z,4.33
2018-07-20T13:55:12.239Z,3.97
2018-07-20T13:57:41.407Z,4.70
2018-07-20T14:00:10.729Z,4.23
2018-07-20T14:02:39.803Z,4.50
2018-07-20T14:05:08.925Z,4.17
2018-07-20T14:07:37.994Z,4.17
2018-07-20T14:10:07.179Z,3.97
2018-07-20T14:12:36.227Z,4.23
2018-07-20T14:15:05.873Z,4.10
2018-07-20T14:17:34.941Z,5.23
2018-07-20T14:20:04.210Z,3.90
2018-07-20T14:22:33.309Z,4.23
2018-07-20T14:25:02.354Z,3.87
2018-07-20T14:27:31.461Z,4.20
2018-07-20T14:30:00.568Z,4.10
2018-07-20T14:32:29.688Z,4.40
2018-07-20T14:34:58.838Z,4.60
2018-07-20T14:37:27.892Z,4.20
2018-07-20T14:39:57.032Z,4.47
2018-07-20T14:42:26.090Z,4.60
2018-07-20T14:44:55.124Z,4.70
2018-07-20T14:47:24.234Z,4.33
2018-07-20T14:49:53.477Z,4.60
2018-07-20T14:52:22.612Z,4.63
2018-07-20T14:54:51.666Z,4.20
2018-07-20T14:57:20.734Z,4.43
2018-07-20T14:59:49.938Z,4.50
2018-07-20T15:02:20.024Z,4.60
2018-07-20T15:04:49.043Z,4.23
2018-07-20T15:07:18.255Z,4.60
2018-07-20T15:09:47.311Z,4.20
2018-07-20T15:12:16.384Z,4.43
2018-07-20T15:14:45.452Z,5.23
2018-07-20T15:17:14.607Z,4.43
2018-07-20T15:19:43.712Z,5.13
2018-07-20T15:22:12.777Z,4.90
2018-07-20T15:24:42.732Z,4.50
2018-07-20T15:27:11.728Z,4.73
2018-07-20T15:29:40.852Z,4.77
2018-07-20T15:32:11.048Z,5.40
2018-07-20T15:34:40.137Z,5.13
2018-07-20T15:37:09.233Z,4.70
2018-07-20T15:39:38.530Z,4.13
2018-07-20T15:42:09.958Z,4.80
2018-07-20T15:44:39.082Z,4.90
2018-07-20T15:47:08.131Z,5.17
2018-07-20T15:49:37.196Z,4.57
2018-07-20T15:54:35.396Z,5.40
2018-07-20T15:57:04.438Z,4.87
2018-07-20T15:59:33.559Z,5.20
2018-07-20T16:02:03.157Z,4.50
2018-07-20T16:04:32.268Z,5.00
2018-07-20T16:07:01.368Z,5.10
2018-07-20T16:09:30.489Z,5.10
2018-07-20T16:11:59.551Z,5.70
2018-07-20T16:14:28.611Z,5.63
2018-07-20T16:16:57.705Z,5.20
2018-07-20T16:19:26.812Z,5.93
2018-07-20T16:21:55.893Z,5.20
2018-07-20T16:24:24.970Z,4.50
2018-07-20T16:26:54.425Z,4.90
2018-07-20T16:29:23.493Z,5.40
2018-07-20T16:31:52.693Z,5.00
2018-07-20T16:34:21.793Z,5.07
2018-07-20T16:36:50.879Z,5.13
2018-07-20T16:39:19.926Z,5.30
2018-07-20T16:41:49.054Z,4.70
2018-07-20T16:44:18.226Z,4.60
2018-07-20T16:46:47.393Z,4.80
2018-07-20T16:49:16.451Z,5.60
2018-07-20T16:51:45.570Z,5.73
2018-07-20T16:54:14.630Z,5.77
2018-07-20T16:56:43.701Z,4.97
2018-07-20T16:59:12.902Z,5.10
2018-07-20T17:01:41.942Z,5.80
2018-07-20T17:04:10.989Z,5.50
2018-07-20T17:06:40.126Z,5.00
2018-07-20T17:09:10.562Z,5.53
2018-07-20T17:11:39.652Z,5.63
2018-07-20T17:14:08.845Z,5.80
2018-07-20T17:16:37.905Z,5.43
2018-07-20T17:19:07.045Z,5.40
2018-07-20T17:21:36.101Z,5.83
2018-07-20T17:24:06.336Z,5.70
2018-07-20T17:26:35.904Z,5.90
2018-07-20T17:29:05.040Z,6.13
2018-07-20T17:31:34.202Z,5.80
2018-07-20T17:34:03.408Z,5.17
2018-07-20T17:36:32.757Z,5.83
2018-07-20T17:39:01.988Z,6.37
2018-07-20T17:41:31.030Z,5.70
2018-07-20T17:44:00.127Z,5.83
2018-07-20T17:46:29.161Z,5.37
2018-07-20T17:48:58.237Z,5.33
2018-07-20T17:51:27.280Z,5.20
2018-07-20T17:53:56.325Z,7.20
2018-07-20T17:56:25.393Z,5.50
2018-07-20T17:58:54.454Z,5.90
2018-07-20T18:01:23.626Z,5.80
2018-07-20T18:03:53.044Z,4.93
2018-07-20T18:06:23.069Z,5.47
2018-07-20T18:08:52.410Z,5.40
2018-07-20T18:11:21.787Z,5.90
2018-07-20T18:13:50.910Z,5.90
2018-07-20T18:16:20.043Z,5.70
2018-07-20T18:18:49.162Z,5.73
2018-07-20T18:21:18.282Z,6.03
2018-07-20T18:23:47.337Z,5.87
2018-07-20T18:26:16.482Z,5.90
2018-07-20T18:28:45.649Z,6.10
2018-07-20T18:31:15.045Z,6.20
2018-07-20T18:33:44.225Z,5.87
2018-07-20T18:36:13.472Z,6.03
2018-07-20T18:38:42.679Z,5.73
2018-07-20T18:41:11.779Z,5.70
2018-07-20T18:43:41.038Z,5.47
2018-07-20T18:46:10.866Z,5.33
2018-07-20T18:48:40.045Z,5.50
2018-07-20T18:51:10.083Z,6.00
2018-07-20T18:53:39.262Z,6.00
2018-07-20T18:56:08.614Z,5.40
2018-07-20T18:58:37.691Z,5.57
2018-07-20T19:01:06.921Z,5.70
2018-07-20T19:03:36.024Z,5.90
2018-07-20T19:06:05.150Z,5.47
2018-07-20T19:08:34.311Z,5.30
2018-07-20T19:11:03.463Z,5.90
2018-07-20T19:13:32.673Z,5.30
2018-07-20T19:16:01.930Z,5.70
2018-07-20T19:18:31.078Z,5.67
2018-07-20T19:21:00.446Z,5.60
2018-07-20T19:23:29.722Z,5.90
2018-07-20T19:25:58.794Z,5.80
2018-07-20T19:28:27.899Z,5.90
2018-07-20T19:30:57.014Z,5.70
2018-07-20T19:33:26.059Z,5.70
2018-07-20T19:35:55.131Z,5.33
2018-07-20T19:38:24.213Z,5.83
2018-07-20T19:40:53.435Z,5.80
2018-07-20T19:43:22.572Z,5.50
2018-07-20T19:45:51.626Z,6.17
2018-07-20T19:48:20.786Z,5.70
2018-07-20T19:50:49.856Z,7.17
2018-07-20T19:53:18.994Z,6.93
2018-07-20T19:55:48.081Z,6.60
2018-07-20T19:58:17.196Z,5.73
2018-07-20T20:00:46.573Z,6.90
2018-07-20T20:03:15.820Z,7.00
2018-07-20T20:05:44.853Z,6.20
2018-07-20T20:08:14.373Z,5.83
2018-07-20T20:10:43.486Z,6.90
2018-07-20T20:13:12.681Z,6.07
2018-07-20T20:15:42.267Z,6.10
2018-07-20T20:18:11.345Z,6.20
2018-07-20T20:20:40.446Z,6.20
2018-07-20T20:23:09.670Z,5.80
2018-07-20T20:25:40.323Z,6.53
2018-07-20T20:28:09.424Z,5.93
2018-07-20T20:30:39.498Z,5.70
2018-07-20T20:33:08.689Z,6.50
2018-07-20T20:35:37.805Z,5.77
2018-07-20T20:38:06.925Z,5.60
2018-07-20T20:40:36.075Z,6.90
2018-07-20T20:43:05.129Z,6.50
2018-07-20T20:45:34.428Z,6.30
2018-07-20T20:48:03.562Z,6.40
2018-07-20T20:50:34.576Z,5.90
2018-07-20T20:53:03.947Z,7.77
2018-07-20T20:55:33.634Z,7.23
2018-07-20T20:58:02.886Z,6.80
2018-07-20T21:00:32.019Z,6.90
2018-07-20T21:03:01.127Z,7.23
2018-07-20T21:05:30.550Z,6.33
2018-07-20T21:08:00.464Z,6.93
2018-07-20T21:10:30.734Z,6.77
2018-07-20T21:12:59.843Z,7.23
2018-07-20T21:15:28.984Z,6.63
2018-07-20T21:17:58.058Z,6.40
2018-07-20T21:20:27.170Z,6.60
2018-07-20T21:22:56.354Z,6.80
2018-07-20T21:25:25.657Z,6.70
2018-07-20T21:27:54.725Z,6.37
2018-07-20T21:30:23.858Z,7.30
2018-07-20T21:32:52.981Z,6.97
2018-07-20T21:35:22.038Z,6.83
2018-07-20T21:37:51.143Z,7.00
2018-07-20T21:40:20.290Z,7.03
2018-07-20T21:42:49.403Z,6.63
2018-07-20T21:45:18.708Z,7.47
2018-07-20T21:47:47.722Z,6.80
2018-07-20T21:50:16.822Z,7.63
2018-07-20T21:52:45.949Z,6.97
2018-07-20T21:55:14.980Z,6.77
2018-07-20T21:57:44.114Z,6.90
2018-07-20T22:00:16.178Z,7.20
2018-07-20T22:02:45.264Z,7.10
2018-07-20T22:05:14.434Z,7.80
2018-07-20T22:07:43.548Z,7.87
2018-07-20T22:10:12.597Z,8.50
2018-07-20T22:12:41.690Z,7.80
2018-07-20T22:15:10.925Z,7.50
2018-07-20T22:17:40.095Z,8.00
2018-07-20T22:20:09.879Z,7.17
2018-07-20T22:22:38.972Z,7.10
2018-07-20T22:25:08.267Z,7.77
2018-07-20T22:27:37.757Z,8.20
2018-07-20T22:30:08.467Z,7.70
2018-07-20T22:32:37.636Z,8.17
2018-07-20T22:35:07.273Z,7.80
2018-07-20T22:37:36.439Z,7.63
2018-07-20T22:40:06.098Z,7.83
2018-07-20T22:42:35.414Z,7.63
2018-07-20T22:45:04.558Z,7.07
2018-07-20T22:47:33.656Z,7.50
2018-07-20T22:50:02.804Z,7.57
2018-07-20T22:52:31.886Z,7.30
2018-07-20T22:55:01.147Z,7.67
2018-07-20T22:57:30.813Z,7.27
2018-07-20T23:00:06.477Z,7.90
2018-07-20T23:02:35.855Z,7.73
2018-07-20T23:05:04.997Z,8.10
2018-07-20T23:07:34.117Z,7.80
2018-07-20T23:10:03.196Z,7.60
2018-07-20T23:12:32.256Z,7.87
2018-07-20T23:15:01.417Z,7.93
2018-07-20T23:17:30.554Z,7.63
2018-07-20T23:19:59.610Z,7.10
2018-07-20T23:22:28.706Z,7.53
2018-07-20T23:24:57.787Z,8.17
2018-07-20T23:27:26.897Z,8.00
2018-07-20T23:29:55.987Z,7.20
2018-07-20T23:32:25.077Z,8.03
2018-07-20T23:34:54.156Z,7.90
2018-07-20T23:37:23.483Z,7.50
2018-07-20T23:39:52.565Z,8.07
2018-07-20T23:42:21.601Z,7.47
2018-07-20T23:44:50.710Z,7.77
2018-07-20T23:47:19.792Z,7.47
2018-07-20T23:49:48.858Z,7.33
2018-07-20T23:52:17.951Z,7.10
2018-07-20T23:54:46.989Z,7.67
2018-07-20T23:57:16.037Z,7.70
2018-07-20T23:59:45.137Z,7.30
